sensor_id;sensor_type;location;lat;lon;timestamp;temperature;humidity
51476;DHT22;37554;50.362;7.568;2024-03-25T00:01:57;16.20;44.70
51476;DHT22;37554;50.362;7.568;2024-03-25T00:04:23;16.20;44.70
51476;DHT22;37554;50.362;7.568;2024-03-25T00:06:49;16.20;44.70
51476;DHT22;37554;50.362;7.568;2024-03-25T00:09:15;16.20;44.70
51476;DHT22;37554;50.362;7.568;2024-03-25T00:11:41;16.20;44.70
51476;DHT22;37554;50.362;7.568;2024-03-25T00:14:07;16.10;44.70
51476;DHT22;37554;50.362;7.568;2024-03-25T00:16:33;16.10;44.70
51476;DHT22;37554;50.362;7.568;2024-03-25T00:18:59;16.10;44.70
51476;DHT22;37554;50.362;7.568;2024-03-25T00:21:25;16.10;44.70
51476;DHT22;37554;50.362;7.568;2024-03-25T00:23:50;16.10;44.70
51476;DHT22;37554;50.362;7.568;2024-03-25T00:26:16;16.10;44.70
51476;DHT22;37554;50.362;7.568;2024-03-25T00:28:42;16.10;44.70
51476;DHT22;37554;50.362;7.568;2024-03-25T00:31:09;16.10;44.70
51476;DHT22;37554;50.362;7.568;2024-03-25T00:33:34;16.00;44.70
51476;DHT22;37554;50.362;7.568;2024-03-25T00:36:00;16.00;44.70
51476;DHT22;37554;50.362;7.568;2024-03-25T00:38:25;16.00;44.70
51476;DHT22;37554;50.362;7.568;2024-03-25T00:40:51;16.00;44.70
51476;DHT22;37554;50.362;7.568;2024-03-25T00:43:17;16.00;44.70
51476;DHT22;37554;50.362;7.568;2024-03-25T00:45:43;16.00;44.70
51476;DHT22;37554;50.362;7.568;2024-03-25T00:48:08;16.00;45.00
51476;DHT22;37554;50.362;7.568;2024-03-25T00:50:34;16.00;44.80
51476;DHT22;37554;50.362;7.568;2024-03-25T00:53:00;15.90;44.70
51476;DHT22;37554;50.362;7.568;2024-03-25T00:55:25;15.90;44.70
51476;DHT22;37554;50.362;7.568;2024-03-25T00:57:51;15.90;44.70
51476;DHT22;37554;50.362;7.568;2024-03-25T01:00:17;15.90;44.70
51476;DHT22;37554;50.362;7.568;2024-03-25T01:02:43;15.90;44.80
51476;DHT22;37554;50.362;7.568;2024-03-25T01:05:09;15.90;44.80
51476;DHT22;37554;50.362;7.568;2024-03-25T01:07:35;15.80;44.80
51476;DHT22;37554;50.362;7.568;2024-03-25T01:10:01;15.90;44.80
51476;DHT22;37554;50.362;7.568;2024-03-25T01:12:27;15.90;44.90
51476;DHT22;37554;50.362;7.568;2024-03-25T01:14:53;15.90;44.80
51476;DHT22;37554;50.362;7.568;2024-03-25T01:17:19;15.80;44.80
51476;DHT22;37554;50.362;7.568;2024-03-25T01:19:44;15.80;44.80
51476;DHT22;37554;50.362;7.568;2024-03-25T01:22:10;15.80;44.80
51476;DHT22;37554;50.362;7.568;2024-03-25T01:24:36;15.80;44.90
51476;DHT22;37554;50.362;7.568;2024-03-25T01:27:02;15.80;44.90
51476;DHT22;37554;50.362;7.568;2024-03-25T01:29:28;15.80;44.80
51476;DHT22;37554;50.362;7.568;2024-03-25T01:31:53;15.70;44.80
51476;DHT22;37554;50.362;7.568;2024-03-25T01:34:19;15.70;44.80
51476;DHT22;37554;50.362;7.568;2024-03-25T01:36:45;15.70;44.90
51476;DHT22;37554;50.362;7.568;2024-03-25T01:39:10;15.70;44.90
51476;DHT22;37554;50.362;7.568;2024-03-25T01:41:36;15.70;44.90
51476;DHT22;37554;50.362;7.568;2024-03-25T01:44:02;15.70;45.00
51476;DHT22;37554;50.362;7.568;2024-03-25T01:46:27;15.70;45.00
51476;DHT22;37554;50.362;7.568;2024-03-25T01:48:53;15.60;45.00
51476;DHT22;37554;50.362;7.568;2024-03-25T01:51:21;15.60;45.00
51476;DHT22;37554;50.362;7.568;2024-03-25T01:53:49;15.60;45.00
51476;DHT22;37554;50.362;7.568;2024-03-25T01:56:15;15.60;45.00
51476;DHT22;37554;50.362;7.568;2024-03-25T01:58:42;15.60;45.00
51476;DHT22;37554;50.362;7.568;2024-03-25T02:01:08;15.60;45.00
51476;DHT22;37554;50.362;7.568;2024-03-25T02:03:39;15.60;45.00
51476;DHT22;37554;50.362;7.568;2024-03-25T02:06:08;15.50;45.00
51476;DHT22;37554;50.362;7.568;2024-03-25T02:08:36;15.50;45.00
51476;DHT22;37554;50.362;7.568;2024-03-25T02:11:02;15.50;45.00
51476;DHT22;37554;50.362;7.568;2024-03-25T02:13:28;15.50;45.00
51476;DHT22;37554;50.362;7.568;2024-03-25T02:15:53;15.50;45.10
51476;DHT22;37554;50.362;7.568;2024-03-25T02:18:20;15.50;45.10
51476;DHT22;37554;50.362;7.568;2024-03-25T02:20:46;15.50;45.10
51476;DHT22;37554;50.362;7.568;2024-03-25T02:23:12;15.50;45.10
51476;DHT22;37554;50.362;7.568;2024-03-25T02:25:41;15.50;45.10
51476;DHT22;37554;50.362;7.568;2024-03-25T02:28:07;15.50;45.10
51476;DHT22;37554;50.362;7.568;2024-03-25T02:30:33;15.50;45.10
51476;DHT22;37554;50.362;7.568;2024-03-25T02:32:58;15.40;45.10
51476;DHT22;37554;50.362;7.568;2024-03-25T02:35:25;15.40;45.10
51476;DHT22;37554;50.362;7.568;2024-03-25T02:37:52;15.40;45.20
51476;DHT22;37554;50.362;7.568;2024-03-25T02:40:18;15.40;45.20
51476;DHT22;37554;50.362;7.568;2024-03-25T02:42:45;15.40;45.20
51476;DHT22;37554;50.362;7.568;2024-03-25T02:45:10;15.40;45.30
51476;DHT22;37554;50.362;7.568;2024-03-25T02:47:36;15.40;45.30
51476;DHT22;37554;50.362;7.568;2024-03-25T02:50:02;15.30;45.30
51476;DHT22;37554;50.362;7.568;2024-03-25T02:52:27;15.40;45.40
51476;DHT22;37554;50.362;7.568;2024-03-25T02:54:53;15.30;45.40
51476;DHT22;37554;50.362;7.568;2024-03-25T02:57:22;15.30;45.40
51476;DHT22;37554;50.362;7.568;2024-03-25T02:59:47;15.30;45.40
51476;DHT22;37554;50.362;7.568;2024-03-25T03:02:13;15.30;45.40
51476;DHT22;37554;50.362;7.568;2024-03-25T03:04:38;15.30;45.40
51476;DHT22;37554;50.362;7.568;2024-03-25T03:07:04;15.30;45.50
51476;DHT22;37554;50.362;7.568;2024-03-25T03:09:30;15.30;45.50
51476;DHT22;37554;50.362;7.568;2024-03-25T03:11:55;15.20;45.50
51476;DHT22;37554;50.362;7.568;2024-03-25T03:14:21;15.20;45.50
51476;DHT22;37554;50.362;7.568;2024-03-25T03:16:47;15.20;45.60
51476;DHT22;37554;50.362;7.568;2024-03-25T03:19:12;15.20;45.60
51476;DHT22;37554;50.362;7.568;2024-03-25T03:21:38;15.10;45.50
51476;DHT22;37554;50.362;7.568;2024-03-25T03:24:04;15.10;45.50
51476;DHT22;37554;50.362;7.568;2024-03-25T03:26:30;15.10;45.60
51476;DHT22;37554;50.362;7.568;2024-03-25T03:28:58;15.10;45.60
51476;DHT22;37554;50.362;7.568;2024-03-25T03:31:25;15.10;45.60
51476;DHT22;37554;50.362;7.568;2024-03-25T03:33:51;15.10;45.60
51476;DHT22;37554;50.362;7.568;2024-03-25T03:36:22;15.00;45.60
51476;DHT22;37554;50.362;7.568;2024-03-25T03:38:50;15.00;45.60
51476;DHT22;37554;50.362;7.568;2024-03-25T03:41:16;15.00;46.30
51476;DHT22;37554;50.362;7.568;2024-03-25T03:43:42;15.00;45.70
51476;DHT22;37554;50.362;7.568;2024-03-25T03:46:08;15.00;45.80
51476;DHT22;37554;50.362;7.568;2024-03-25T03:48:33;15.00;45.80
51476;DHT22;37554;50.362;7.568;2024-03-25T03:50:59;14.90;45.80
51476;DHT22;37554;50.362;7.568;2024-03-25T03:53:24;15.00;45.80
51476;DHT22;37554;50.362;7.568;2024-03-25T03:55:57;14.90;45.80
51476;DHT22;37554;50.362;7.568;2024-03-25T03:58:24;14.90;45.80
51476;DHT22;37554;50.362;7.568;2024-03-25T04:00:50;14.90;45.80
51476;DHT22;37554;50.362;7.568;2024-03-25T04:03:16;14.90;45.90
51476;DHT22;37554;50.362;7.568;2024-03-25T04:05:42;14.90;45.90
51476;DHT22;37554;50.362;7.568;2024-03-25T04:08:07;14.80;45.90
51476;DHT22;37554;50.362;7.568;2024-03-25T04:10:34;14.80;46.00
51476;DHT22;37554;50.362;7.568;2024-03-25T04:12:59;14.80;46.10
51476;DHT22;37554;50.362;7.568;2024-03-25T04:15:25;14.80;46.20
51476;DHT22;37554;50.362;7.568;2024-03-25T04:17:51;14.70;46.20
51476;DHT22;37554;50.362;7.568;2024-03-25T04:20:17;14.80;46.20
51476;DHT22;37554;50.362;7.568;2024-03-25T04:22:46;14.70;46.30
51476;DHT22;37554;50.362;7.568;2024-03-25T04:25:13;14.70;46.30
51476;DHT22;37554;50.362;7.568;2024-03-25T04:27:42;14.70;46.40
51476;DHT22;37554;50.362;7.568;2024-03-25T04:30:08;14.70;46.40
51476;DHT22;37554;50.362;7.568;2024-03-25T04:32:35;14.70;46.50
51476;DHT22;37554;50.362;7.568;2024-03-25T04:35:01;14.70;46.50
51476;DHT22;37554;50.362;7.568;2024-03-25T04:37:29;14.60;46.50
51476;DHT22;37554;50.362;7.568;2024-03-25T04:39:55;14.60;46.50
51476;DHT22;37554;50.362;7.568;2024-03-25T04:42:21;14.60;46.60
51476;DHT22;37554;50.362;7.568;2024-03-25T04:44:47;14.60;46.70
51476;DHT22;37554;50.362;7.568;2024-03-25T04:47:13;14.50;46.70
51476;DHT22;37554;50.362;7.568;2024-03-25T04:49:41;14.50;46.80
51476;DHT22;37554;50.362;7.568;2024-03-25T04:52:06;14.50;46.90
51476;DHT22;37554;50.362;7.568;2024-03-25T04:54:32;14.50;46.90
51476;DHT22;37554;50.362;7.568;2024-03-25T04:56:58;14.50;47.00
51476;DHT22;37554;50.362;7.568;2024-03-25T04:59:23;14.50;47.00
51476;DHT22;37554;50.362;7.568;2024-03-25T05:01:49;14.50;47.00
51476;DHT22;37554;50.362;7.568;2024-03-25T05:04:14;14.40;47.00
51476;DHT22;37554;50.362;7.568;2024-03-25T05:06:40;14.40;47.10
51476;DHT22;37554;50.362;7.568;2024-03-25T05:09:05;14.40;47.10
51476;DHT22;37554;50.362;7.568;2024-03-25T05:11:32;14.40;47.20
51476;DHT22;37554;50.362;7.568;2024-03-25T05:13:58;14.40;47.20
51476;DHT22;37554;50.362;7.568;2024-03-25T05:16:24;14.40;47.20
51476;DHT22;37554;50.362;7.568;2024-03-25T05:18:49;14.30;47.90
51476;DHT22;37554;50.362;7.568;2024-03-25T05:21:15;14.30;47.20
51476;DHT22;37554;50.362;7.568;2024-03-25T05:23:40;14.30;47.30
51476;DHT22;37554;50.362;7.568;2024-03-25T05:26:06;14.30;47.40
51476;DHT22;37554;50.362;7.568;2024-03-25T05:28:31;14.30;48.00
51476;DHT22;37554;50.362;7.568;2024-03-25T05:31:04;14.20;47.30
51476;DHT22;37554;50.362;7.568;2024-03-25T05:33:30;14.30;47.40
51476;DHT22;37554;50.362;7.568;2024-03-25T05:35:55;14.20;47.40
51476;DHT22;37554;50.362;7.568;2024-03-25T05:38:21;14.20;47.50
51476;DHT22;37554;50.362;7.568;2024-03-25T05:40:46;14.30;47.40
51476;DHT22;37554;50.362;7.568;2024-03-25T05:43:12;14.20;47.40
51476;DHT22;37554;50.362;7.568;2024-03-25T05:45:37;14.20;47.40
51476;DHT22;37554;50.362;7.568;2024-03-25T05:48:03;14.20;47.40
51476;DHT22;37554;50.362;7.568;2024-03-25T05:50:29;14.30;47.40
51476;DHT22;37554;50.362;7.568;2024-03-25T05:52:54;14.20;47.40
51476;DHT22;37554;50.362;7.568;2024-03-25T05:55:20;14.20;47.40
51476;DHT22;37554;50.362;7.568;2024-03-25T05:57:45;14.20;48.00
51476;DHT22;37554;50.362;7.568;2024-03-25T06:00:12;14.20;47.30
51476;DHT22;37554;50.362;7.568;2024-03-25T06:02:38;14.20;47.40
51476;DHT22;37554;50.362;7.568;2024-03-25T06:05:04;14.20;47.40
51476;DHT22;37554;50.362;7.568;2024-03-25T06:07:31;14.20;47.30
51476;DHT22;37554;50.362;7.568;2024-03-25T06:09:56;14.20;47.30
51476;DHT22;37554;50.362;7.568;2024-03-25T06:12:22;14.30;47.40
51476;DHT22;37554;50.362;7.568;2024-03-25T06:14:47;14.30;47.40
51476;DHT22;37554;50.362;7.568;2024-03-25T06:17:13;14.30;47.40
51476;DHT22;37554;50.362;7.568;2024-03-25T06:19:38;14.20;47.30
51476;DHT22;37554;50.362;7.568;2024-03-25T06:22:04;14.30;47.40
51476;DHT22;37554;50.362;7.568;2024-03-25T06:24:30;14.30;47.40
51476;DHT22;37554;50.362;7.568;2024-03-25T06:26:55;14.30;47.40
51476;DHT22;37554;50.362;7.568;2024-03-25T06:29:21;14.30;47.40
51476;DHT22;37554;50.362;7.568;2024-03-25T06:31:47;14.30;47.20
51476;DHT22;37554;50.362;7.568;2024-03-25T06:34:31;13.70;47.00
51476;DHT22;37554;50.362;7.568;2024-03-25T06:36:57;13.00;47.80
51476;DHT22;37554;50.362;7.568;2024-03-25T06:39:23;12.60;48.80
51476;DHT22;37554;50.362;7.568;2024-03-25T06:41:48;12.30;49.30
51476;DHT22;37554;50.362;7.568;2024-03-25T06:44:14;12.20;50.00
51476;DHT22;37554;50.362;7.568;2024-03-25T06:46:39;12.60;51.20
51476;DHT22;37554;50.362;7.568;2024-03-25T06:49:05;13.20;50.30
51476;DHT22;37554;50.362;7.568;2024-03-25T06:51:30;13.70;49.20
51476;DHT22;37554;50.362;7.568;2024-03-25T06:53:56;14.10;48.60
51476;DHT22;37554;50.362;7.568;2024-03-25T06:56:21;14.30;47.90
51476;DHT22;37554;50.362;7.568;2024-03-25T06:58:47;14.50;47.60
51476;DHT22;37554;50.362;7.568;2024-03-25T07:01:12;14.70;47.40
51476;DHT22;37554;50.362;7.568;2024-03-25T07:03:38;14.80;47.40
51476;DHT22;37554;50.362;7.568;2024-03-25T07:06:04;14.90;47.30
51476;DHT22;37554;50.362;7.568;2024-03-25T07:08:31;15.00;47.10
51476;DHT22;37554;50.362;7.568;2024-03-25T07:10:57;15.10;47.00
51476;DHT22;37554;50.362;7.568;2024-03-25T07:13:22;15.20;46.80
51476;DHT22;37554;50.362;7.568;2024-03-25T07:15:48;15.20;46.70
51476;DHT22;37554;50.362;7.568;2024-03-25T07:18:14;15.20;46.80
51476;DHT22;37554;50.362;7.568;2024-03-25T07:20:40;15.30;46.70
51476;DHT22;37554;50.362;7.568;2024-03-25T07:23:06;15.30;46.70
51476;DHT22;37554;50.362;7.568;2024-03-25T07:25:32;15.30;46.70
51476;DHT22;37554;50.362;7.568;2024-03-25T07:27:58;15.40;46.80
51476;DHT22;37554;50.362;7.568;2024-03-25T07:30:23;15.40;46.80
51476;DHT22;37554;50.362;7.568;2024-03-25T07:32:58;15.40;46.80
51476;DHT22;37554;50.362;7.568;2024-03-25T07:35:24;15.50;46.80
51476;DHT22;37554;50.362;7.568;2024-03-25T07:37:51;15.50;46.70
51476;DHT22;37554;50.362;7.568;2024-03-25T07:40:21;15.60;46.70
51476;DHT22;37554;50.362;7.568;2024-03-25T07:42:47;15.70;46.80
51476;DHT22;37554;50.362;7.568;2024-03-25T07:45:12;15.70;46.70
51476;DHT22;37554;50.362;7.568;2024-03-25T07:47:38;15.80;46.60
51476;DHT22;37554;50.362;7.568;2024-03-25T07:50:04;15.90;46.50
51476;DHT22;37554;50.362;7.568;2024-03-25T07:52:31;16.00;46.50
51476;DHT22;37554;50.362;7.568;2024-03-25T07:54:57;16.00;46.30
51476;DHT22;37554;50.362;7.568;2024-03-25T07:57:22;16.20;46.20
51476;DHT22;37554;50.362;7.568;2024-03-25T07:59:48;16.20;46.10
51476;DHT22;37554;50.362;7.568;2024-03-25T08:02:15;16.30;46.10
51476;DHT22;37554;50.362;7.568;2024-03-25T08:04:40;16.40;45.90
51476;DHT22;37554;50.362;7.568;2024-03-25T08:07:06;16.50;45.90
51476;DHT22;37554;50.362;7.568;2024-03-25T08:09:31;16.60;46.40
51476;DHT22;37554;50.362;7.568;2024-03-25T08:11:57;16.70;45.70
51476;DHT22;37554;50.362;7.568;2024-03-25T08:14:23;16.80;45.60
51476;DHT22;37554;50.362;7.568;2024-03-25T08:16:49;17.00;45.60
51476;DHT22;37554;50.362;7.568;2024-03-25T08:19:14;17.10;45.50
51476;DHT22;37554;50.362;7.568;2024-03-25T08:21:40;17.30;45.50
51476;DHT22;37554;50.362;7.568;2024-03-25T08:24:06;17.40;45.30
51476;DHT22;37554;50.362;7.568;2024-03-25T08:26:31;17.60;45.20
51476;DHT22;37554;50.362;7.568;2024-03-25T08:28:57;17.80;45.10
51476;DHT22;37554;50.362;7.568;2024-03-25T08:31:23;18.00;44.80
51476;DHT22;37554;50.362;7.568;2024-03-25T08:33:48;18.20;44.70
51476;DHT22;37554;50.362;7.568;2024-03-25T08:36:14;18.40;44.40
51476;DHT22;37554;50.362;7.568;2024-03-25T08:38:40;18.60;44.20
51476;DHT22;37554;50.362;7.568;2024-03-25T08:41:05;18.80;44.00
51476;DHT22;37554;50.362;7.568;2024-03-25T08:43:31;18.90;43.80
51476;DHT22;37554;50.362;7.568;2024-03-25T08:45:56;19.10;43.60
51476;DHT22;37554;50.362;7.568;2024-03-25T08:48:23;19.20;43.50
51476;DHT22;37554;50.362;7.568;2024-03-25T08:50:48;19.40;43.20
51476;DHT22;37554;50.362;7.568;2024-03-25T08:53:14;19.60;43.00
51476;DHT22;37554;50.362;7.568;2024-03-25T08:55:45;19.80;42.80
51476;DHT22;37554;50.362;7.568;2024-03-25T08:58:11;19.90;42.50
51476;DHT22;37554;50.362;7.568;2024-03-25T09:00:36;20.10;42.40
51476;DHT22;37554;50.362;7.568;2024-03-25T09:03:02;20.30;42.10
51476;DHT22;37554;50.362;7.568;2024-03-25T09:05:29;20.50;41.90
51476;DHT22;37554;50.362;7.568;2024-03-25T09:07:55;20.70;41.70
51476;DHT22;37554;50.362;7.568;2024-03-25T09:10:21;20.90;41.40
51476;DHT22;37554;50.362;7.568;2024-03-25T09:13:05;21.10;41.20
51476;DHT22;37554;50.362;7.568;2024-03-25T09:15:31;21.30;41.10
51476;DHT22;37554;50.362;7.568;2024-03-25T09:17:57;21.40;40.90
51476;DHT22;37554;50.362;7.568;2024-03-25T09:20:22;21.60;41.40
51476;DHT22;37554;50.362;7.568;2024-03-25T09:22:48;21.80;40.40
51476;DHT22;37554;50.362;7.568;2024-03-25T09:25:14;22.10;40.20
51476;DHT22;37554;50.362;7.568;2024-03-25T09:27:40;22.30;40.00
51476;DHT22;37554;50.362;7.568;2024-03-25T09:30:06;22.60;39.70
51476;DHT22;37554;50.362;7.568;2024-03-25T09:32:34;22.80;39.40
51476;DHT22;37554;50.362;7.568;2024-03-25T09:35:01;23.10;39.20
51476;DHT22;37554;50.362;7.568;2024-03-25T09:37:26;23.30;38.90
51476;DHT22;37554;50.362;7.568;2024-03-25T09:39:52;23.50;38.70
51476;DHT22;37554;50.362;7.568;2024-03-25T09:42:28;23.70;38.40
51476;DHT22;37554;50.362;7.568;2024-03-25T09:44:57;24.00;38.10
51476;DHT22;37554;50.362;7.568;2024-03-25T09:47:23;24.20;37.90
51476;DHT22;37554;50.362;7.568;2024-03-25T09:49:50;24.40;37.80
51476;DHT22;37554;50.362;7.568;2024-03-25T13:42:33;27.10;28.40
51476;DHT22;37554;50.362;7.568;2024-03-25T13:44:59;26.70;29.70
51476;DHT22;37554;50.362;7.568;2024-03-25T13:47:24;26.60;29.00
51476;DHT22;37554;50.362;7.568;2024-03-25T13:50:00;26.30;28.60
51476;DHT22;37554;50.362;7.568;2024-03-25T13:52:26;26.10;27.60
51476;DHT22;37554;50.362;7.568;2024-03-25T13:54:51;25.90;28.10
51476;DHT22;37554;50.362;7.568;2024-03-25T13:57:17;25.80;28.20
51476;DHT22;37554;50.362;7.568;2024-03-25T13:59:43;25.70;27.90
51476;DHT22;37554;50.362;7.568;2024-03-25T14:02:08;25.50;27.80
51476;DHT22;37554;50.362;7.568;2024-03-25T14:04:34;25.40;27.70
51476;DHT22;37554;50.362;7.568;2024-03-25T14:07:00;25.30;27.50
51476;DHT22;37554;50.362;7.568;2024-03-25T14:09:26;25.30;28.10
51476;DHT22;37554;50.362;7.568;2024-03-25T14:11:52;25.40;28.60
51476;DHT22;37554;50.362;7.568;2024-03-25T14:14:17;25.40;28.40
51476;DHT22;37554;50.362;7.568;2024-03-25T14:16:43;25.50;28.10
51476;DHT22;37554;50.362;7.568;2024-03-25T14:19:08;25.60;28.30
51476;DHT22;37554;50.362;7.568;2024-03-25T14:21:34;25.60;28.30
51476;DHT22;37554;50.362;7.568;2024-03-25T14:24:00;25.70;28.20
51476;DHT22;37554;50.362;7.568;2024-03-25T14:26:25;25.70;28.10
51476;DHT22;37554;50.362;7.568;2024-03-25T14:28:51;25.60;28.30
51476;DHT22;37554;50.362;7.568;2024-03-25T14:31:16;25.60;28.00
51476;DHT22;37554;50.362;7.568;2024-03-25T14:33:42;25.50;28.20
51476;DHT22;37554;50.362;7.568;2024-03-25T14:36:08;25.00;27.90
51476;DHT22;37554;50.362;7.568;2024-03-25T14:38:33;24.40;28.00
51476;DHT22;37554;50.362;7.568;2024-03-25T14:41:00;24.20;28.90
51476;DHT22;37554;50.362;7.568;2024-03-25T14:43:25;24.20;29.00
51476;DHT22;37554;50.362;7.568;2024-03-25T14:45:51;24.00;28.70
51476;DHT22;37554;50.362;7.568;2024-03-25T14:48:17;23.60;28.70
51476;DHT22;37554;50.362;7.568;2024-03-25T14:50:42;23.20;29.20
51476;DHT22;37554;50.362;7.568;2024-03-25T14:53:08;23.20;29.40
51476;DHT22;37554;50.362;7.568;2024-03-25T14:55:33;23.40;29.20
51476;DHT22;37554;50.362;7.568;2024-03-25T14:57:59;23.50;28.90
51476;DHT22;37554;50.362;7.568;2024-03-25T15:00:25;23.50;28.60
51476;DHT22;37554;50.362;7.568;2024-03-25T15:02:53;23.40;28.70
51476;DHT22;37554;50.362;7.568;2024-03-25T15:05:20;23.50;28.60
51476;DHT22;37554;50.362;7.568;2024-03-25T15:07:45;23.60;28.40
51476;DHT22;37554;50.362;7.568;2024-03-25T15:10:11;23.60;28.00
51476;DHT22;37554;50.362;7.568;2024-03-25T15:12:38;23.50;28.10
51476;DHT22;37554;50.362;7.568;2024-03-25T15:15:04;23.50;28.00
51476;DHT22;37554;50.362;7.568;2024-03-25T15:17:34;23.30;27.90
51476;DHT22;37554;50.362;7.568;2024-03-25T15:20:00;23.30;28.20
51476;DHT22;37554;50.362;7.568;2024-03-25T15:22:25;23.10;28.10
51476;DHT22;37554;50.362;7.568;2024-03-25T15:24:51;23.00;28.60
51476;DHT22;37554;50.362;7.568;2024-03-25T15:27:17;22.90;28.50
51476;DHT22;37554;50.362;7.568;2024-03-25T15:29:42;22.80;28.00
51476;DHT22;37554;50.362;7.568;2024-03-25T15:32:08;22.70;28.90
51476;DHT22;37554;50.362;7.568;2024-03-25T15:34:33;23.00;28.50
51476;DHT22;37554;50.362;7.568;2024-03-25T15:36:59;23.30;28.50
51476;DHT22;37554;50.362;7.568;2024-03-25T15:39:25;23.50;28.30
51476;DHT22;37554;50.362;7.568;2024-03-25T15:41:50;23.70;28.30
51476;DHT22;37554;50.362;7.568;2024-03-25T15:44:16;23.80;28.30
51476;DHT22;37554;50.362;7.568;2024-03-25T15:46:42;23.80;28.20
51476;DHT22;37554;50.362;7.568;2024-03-25T15:49:08;23.90;28.20
51476;DHT22;37554;50.362;7.568;2024-03-25T15:51:34;23.90;28.20
51476;DHT22;37554;50.362;7.568;2024-03-25T15:54:00;23.80;28.30
51476;DHT22;37554;50.362;7.568;2024-03-25T15:56:25;23.80;28.30
51476;DHT22;37554;50.362;7.568;2024-03-25T15:58:51;23.70;28.20
51476;DHT22;37554;50.362;7.568;2024-03-25T16:01:20;23.80;28.50
51476;DHT22;37554;50.362;7.568;2024-03-25T16:03:45;23.70;28.50
51476;DHT22;37554;50.362;7.568;2024-03-25T16:06:11;23.70;28.60
51476;DHT22;37554;50.362;7.568;2024-03-25T16:08:37;23.80;28.70
51476;DHT22;37554;50.362;7.568;2024-03-25T16:11:03;23.90;28.90
51476;DHT22;37554;50.362;7.568;2024-03-25T16:13:29;23.90;29.10
51476;DHT22;37554;50.362;7.568;2024-03-25T16:16:13;23.90;29.30
51476;DHT22;37554;50.362;7.568;2024-03-25T16:18:38;23.90;29.60
51476;DHT22;37554;50.362;7.568;2024-03-25T16:21:14;23.90;29.80
51476;DHT22;37554;50.362;7.568;2024-03-25T16:23:41;24.00;30.30
51476;DHT22;37554;50.362;7.568;2024-03-25T16:26:07;24.00;30.50
51476;DHT22;37554;50.362;7.568;2024-03-25T16:28:33;24.10;30.90
51476;DHT22;37554;50.362;7.568;2024-03-25T16:31:00;24.10;31.30
51476;DHT22;37554;50.362;7.568;2024-03-25T16:33:26;24.00;30.10
51476;DHT22;37554;50.362;7.568;2024-03-25T16:35:51;23.20;29.70
51476;DHT22;37554;50.362;7.568;2024-03-25T16:38:17;22.50;29.70
51476;DHT22;37554;50.362;7.568;2024-03-25T16:40:42;21.90;29.90
51476;DHT22;37554;50.362;7.568;2024-03-25T16:43:08;21.40;30.30
51476;DHT22;37554;50.362;7.568;2024-03-25T16:45:34;21.00;30.60
51476;DHT22;37554;50.362;7.568;2024-03-25T16:47:59;20.80;30.70
51476;DHT22;37554;50.362;7.568;2024-03-25T16:50:26;21.00;30.60
51476;DHT22;37554;50.362;7.568;2024-03-25T16:52:53;21.10;30.10
51476;DHT22;37554;50.362;7.568;2024-03-25T16:55:18;21.20;29.90
51476;DHT22;37554;50.362;7.568;2024-03-25T16:57:44;21.30;29.70
51476;DHT22;37554;50.362;7.568;2024-03-25T17:00:10;21.40;29.60
51476;DHT22;37554;50.362;7.568;2024-03-25T17:02:37;21.40;29.40
51476;DHT22;37554;50.362;7.568;2024-03-25T17:05:04;21.40;29.30
51476;DHT22;37554;50.362;7.568;2024-03-25T17:07:30;21.30;29.20
51476;DHT22;37554;50.362;7.568;2024-03-25T17:09:56;21.20;29.10
51476;DHT22;37554;50.362;7.568;2024-03-25T17:12:21;21.20;29.10
51476;DHT22;37554;50.362;7.568;2024-03-25T17:14:47;20.80;29.00
51476;DHT22;37554;50.362;7.568;2024-03-25T17:17:12;20.40;29.10
51476;DHT22;37554;50.362;7.568;2024-03-25T17:19:38;20.00;29.20
51476;DHT22;37554;50.362;7.568;2024-03-25T17:22:04;19.70;29.60
51476;DHT22;37554;50.362;7.568;2024-03-25T17:24:30;19.40;29.70
51476;DHT22;37554;50.362;7.568;2024-03-25T17:26:56;19.20;30.00
51476;DHT22;37554;50.362;7.568;2024-03-25T17:29:21;19.00;30.30
51476;DHT22;37554;50.362;7.568;2024-03-25T17:31:49;18.90;30.50
51476;DHT22;37554;50.362;7.568;2024-03-25T17:34:14;18.70;30.30
51476;DHT22;37554;50.362;7.568;2024-03-25T17:36:40;18.60;30.30
51476;DHT22;37554;50.362;7.568;2024-03-25T17:39:06;18.60;30.80
51476;DHT22;37554;50.362;7.568;2024-03-25T17:41:32;18.80;31.30
51476;DHT22;37554;50.362;7.568;2024-03-25T17:43:57;19.10;31.20
51476;DHT22;37554;50.362;7.568;2024-03-25T17:46:23;19.30;31.00
51476;DHT22;37554;50.362;7.568;2024-03-25T17:48:49;19.60;30.80
51476;DHT22;37554;50.362;7.568;2024-03-25T17:51:19;19.60;30.60
51476;DHT22;37554;50.362;7.568;2024-03-25T17:53:45;19.70;30.50
51476;DHT22;37554;50.362;7.568;2024-03-25T17:56:10;19.80;30.50
51476;DHT22;37554;50.362;7.568;2024-03-25T17:58:36;19.90;30.50
51476;DHT22;37554;50.362;7.568;2024-03-25T18:01:02;19.90;30.40
51476;DHT22;37554;50.362;7.568;2024-03-25T18:03:28;20.00;30.40
51476;DHT22;37554;50.362;7.568;2024-03-25T18:05:54;20.00;30.40
51476;DHT22;37554;50.362;7.568;2024-03-25T18:08:19;20.00;30.40
51476;DHT22;37554;50.362;7.568;2024-03-25T18:10:46;20.00;30.40
51476;DHT22;37554;50.362;7.568;2024-03-25T18:13:12;20.00;30.40
51476;DHT22;37554;50.362;7.568;2024-03-25T18:15:47;20.00;30.40
51476;DHT22;37554;50.362;7.568;2024-03-25T18:18:13;20.00;30.40
51476;DHT22;37554;50.362;7.568;2024-03-25T18:20:40;20.00;31.20
51476;DHT22;37554;50.362;7.568;2024-03-25T18:23:06;20.00;30.60
51476;DHT22;37554;50.362;7.568;2024-03-25T18:25:33;20.00;30.60
51476;DHT22;37554;50.362;7.568;2024-03-25T18:27:58;20.00;31.40
51476;DHT22;37554;50.362;7.568;2024-03-25T18:30:24;20.00;30.70
51476;DHT22;37554;50.362;7.568;2024-03-25T18:32:49;20.00;30.80
51476;DHT22;37554;50.362;7.568;2024-03-25T18:35:15;20.00;30.80
51476;DHT22;37554;50.362;7.568;2024-03-25T18:37:41;20.00;30.90
51476;DHT22;37554;50.362;7.568;2024-03-25T18:40:07;19.90;30.90
51476;DHT22;37554;50.362;7.568;2024-03-25T18:42:39;20.00;31.00
51476;DHT22;37554;50.362;7.568;2024-03-25T18:45:05;20.00;31.10
51476;DHT22;37554;50.362;7.568;2024-03-25T18:47:31;19.90;31.10
51476;DHT22;37554;50.362;7.568;2024-03-25T18:49:56;19.90;31.20
51476;DHT22;37554;50.362;7.568;2024-03-25T18:52:22;19.90;31.20
51476;DHT22;37554;50.362;7.568;2024-03-25T18:54:47;19.90;31.30
51476;DHT22;37554;50.362;7.568;2024-03-25T18:57:13;19.90;31.40
51476;DHT22;37554;50.362;7.568;2024-03-25T18:59:38;19.80;31.40
51476;DHT22;37554;50.362;7.568;2024-03-25T19:02:04;19.80;31.50
51476;DHT22;37554;50.362;7.568;2024-03-25T19:04:30;19.80;31.50
51476;DHT22;37554;50.362;7.568;2024-03-25T19:06:55;19.80;31.60
51476;DHT22;37554;50.362;7.568;2024-03-25T19:09:21;19.70;31.70
51476;DHT22;37554;50.362;7.568;2024-03-25T19:11:47;19.70;31.70
51476;DHT22;37554;50.362;7.568;2024-03-25T19:14:13;19.70;31.80